Terminal Aerodrome Forecast
Issued by NWS Springfield, MO

Home | Current Version | Previous Version | Text Only | Print | Product List | Glossary On
Versions: 1 2 3 4 5 6 7 8 9 10 11 12 13 14 15 16 17 18 19 20 21 22 23
888
FTUS43 KSGF 281728
TAFSGF
TAF
KSGF 281728Z 2818/2918 19013G25KT P6SM SCT250
     FM290100 16011KT P6SM SCT250
     FM290600 16012KT P6SM SCT250 WS020/21040KT
     FM291500 18015G25KT P6SM SCT250=

USA.gov is the U.S. government's official web portal to all federal, state and local government web resources and services.